sensor_id;sensor_type;location;lat;lon;timestamp;P1;durP1;ratioP1;P2;durP2;ratioP2
2912;SDS011;1466;48.778;9.166;2023-03-20T00:00:42;11.38;;;5.93;;
2912;SDS011;1466;48.778;9.166;2023-03-20T00:03:11;11.05;;;6.35;;
2912;SDS011;1466;48.778;9.166;2023-03-20T00:05:37;14.00;;;6.38;;
2912;SDS011;1466;48.778;9.166;2023-03-20T00:08:03;20.88;;;7.82;;
2912;SDS011;1466;48.778;9.166;2023-03-20T00:10:36;17.63;;;6.57;;
2912;SDS011;1466;48.778;9.166;2023-03-20T00:13:07;14.40;;;6.13;;
2912;SDS011;1466;48.778;9.166;2023-03-20T00:15:39;14.63;;;6.63;;
2912;SDS011;1466;48.778;9.166;2023-03-20T00:18:14;19.45;;;7.38;;
2912;SDS011;1466;48.778;9.166;2023-03-20T00:20:44;16.75;;;7.20;;
2912;SDS011;1466;48.778;9.166;2023-03-20T00:23:11;21.20;;;8.50;;
2912;SDS011;1466;48.778;9.166;2023-03-20T00:25:37;13.05;;;5.95;;
2912;SDS011;1466;48.778;9.166;2023-03-20T00:28:12;14.50;;;7.07;;
2912;SDS011;1466;48.778;9.166;2023-03-20T00:30:53;15.95;;;6.65;;
2912;SDS011;1466;48.778;9.166;2023-03-20T00:33:18;20.77;;;7.73;;
2912;SDS011;1466;48.778;9.166;2023-03-20T00:35:44;10.00;;;6.03;;
2912;SDS011;1466;48.778;9.166;2023-03-20T00:38:09;10.67;;;5.93;;
2912;SDS011;1466;48.778;9.166;2023-03-20T00:40:35;18.43;;;6.73;;
2912;SDS011;1466;48.778;9.166;2023-03-20T00:43:02;13.03;;;5.90;;
2912;SDS011;1466;48.778;9.166;2023-03-20T00:45:29;14.60;;;6.60;;
2912;SDS011;1466;48.778;9.166;2023-03-20T00:47:57;13.93;;;6.05;;
2912;SDS011;1466;48.778;9.166;2023-03-20T00:50:25;9.73;;;5.30;;
2912;SDS011;1466;48.778;9.166;2023-03-20T00:52:53;25.02;;;7.35;;
2912;SDS011;1466;48.778;9.166;2023-03-20T00:55:20;12.40;;;5.43;;
2912;SDS011;1466;48.778;9.166;2023-03-20T01:02:46;16.40;;;5.97;;
2912;SDS011;1466;48.778;9.166;2023-03-20T01:05:12;7.77;;;5.23;;
2912;SDS011;1466;48.778;9.166;2023-03-20T01:07:37;15.50;;;6.03;;
2912;SDS011;1466;48.778;9.166;2023-03-20T01:10:03;14.53;;;6.23;;
2912;SDS011;1466;48.778;9.166;2023-03-20T01:12:30;14.13;;;5.85;;
2912;SDS011;1466;48.778;9.166;2023-03-20T01:14:56;16.93;;;6.33;;
2912;SDS011;1466;48.778;9.166;2023-03-20T01:17:23;19.30;;;6.65;;
2912;SDS011;1466;48.778;9.166;2023-03-20T01:19:50;15.20;;;6.30;;
2912;SDS011;1466;48.778;9.166;2023-03-20T01:22:16;15.00;;;6.07;;
2912;SDS011;1466;48.778;9.166;2023-03-20T01:24:42;15.98;;;6.03;;
2912;SDS011;1466;48.778;9.166;2023-03-20T01:27:12;20.17;;;6.73;;
2912;SDS011;1466;48.778;9.166;2023-03-20T01:29:40;12.52;;;5.65;;
2912;SDS011;1466;48.778;9.166;2023-03-20T01:32:16;14.30;;;6.03;;
2912;SDS011;1466;48.778;9.166;2023-03-20T01:34:43;23.23;;;7.53;;
2912;SDS011;1466;48.778;9.166;2023-03-20T01:37:10;13.87;;;6.13;;
2912;SDS011;1466;48.778;9.166;2023-03-20T01:39:38;13.35;;;6.05;;
2912;SDS011;1466;48.778;9.166;2023-03-20T01:42:04;13.67;;;5.80;;
2912;SDS011;1466;48.778;9.166;2023-03-20T01:44:31;17.90;;;6.68;;
2912;SDS011;1466;48.778;9.166;2023-03-20T01:46:59;16.58;;;6.45;;
2912;SDS011;1466;48.778;9.166;2023-03-20T01:51:52;14.23;;;5.83;;
2912;SDS011;1466;48.778;9.166;2023-03-20T01:54:31;9.40;;;4.88;;
2912;SDS011;1466;48.778;9.166;2023-03-20T01:57:05;9.75;;;4.93;;
2912;SDS011;1466;48.778;9.166;2023-03-20T02:01:58;23.10;;;7.00;;
2912;SDS011;1466;48.778;9.166;2023-03-20T02:04:29;10.77;;;5.05;;
2912;SDS011;1466;48.778;9.166;2023-03-20T02:06:59;11.60;;;4.60;;
2912;SDS011;1466;48.778;9.166;2023-03-20T02:09:25;15.50;;;5.57;;
2912;SDS011;1466;48.778;9.166;2023-03-20T02:11:51;11.90;;;5.17;;
2912;SDS011;1466;48.778;9.166;2023-03-20T02:14:18;12.25;;;5.18;;
2912;SDS011;1466;48.778;9.166;2023-03-20T02:16:45;8.65;;;4.28;;
2912;SDS011;1466;48.778;9.166;2023-03-20T02:19:17;11.48;;;4.53;;
2912;SDS011;1466;48.778;9.166;2023-03-20T02:27:31;6.70;;;4.15;;
2912;SDS011;1466;48.778;9.166;2023-03-20T02:32:51;11.55;;;4.45;;
2912;SDS011;1466;48.778;9.166;2023-03-20T02:41:00;8.88;;;3.90;;
2912;SDS011;1466;48.778;9.166;2023-03-20T02:46:05;18.88;;;5.60;;
2912;SDS011;1466;48.778;9.166;2023-03-20T02:48:39;11.32;;;4.15;;
2912;SDS011;1466;48.778;9.166;2023-03-20T02:51:14;15.88;;;4.88;;
2912;SDS011;1466;48.778;9.166;2023-03-20T02:53:53;12.80;;;4.60;;
2912;SDS011;1466;48.778;9.166;2023-03-20T02:56:44;8.63;;;3.80;;
2912;SDS011;1466;48.778;9.166;2023-03-20T03:01:46;16.35;;;4.82;;
2912;SDS011;1466;48.778;9.166;2023-03-20T03:04:17;8.38;;;3.70;;
2912;SDS011;1466;48.778;9.166;2023-03-20T03:06:47;9.30;;;3.75;;
2912;SDS011;1466;48.778;9.166;2023-03-20T03:09:21;14.93;;;4.65;;
2912;SDS011;1466;48.778;9.166;2023-03-20T03:11:52;9.48;;;3.90;;
2912;SDS011;1466;48.778;9.166;2023-03-20T03:14:28;13.18;;;4.43;;
2912;SDS011;1466;48.778;9.166;2023-03-20T03:16:57;11.25;;;4.10;;
2912;SDS011;1466;48.778;9.166;2023-03-20T03:19:26;14.30;;;4.85;;
2912;SDS011;1466;48.778;9.166;2023-03-20T03:21:53;12.95;;;4.70;;
2912;SDS011;1466;48.778;9.166;2023-03-20T03:26:47;6.57;;;3.50;;
2912;SDS011;1466;48.778;9.166;2023-03-20T03:29:14;9.05;;;3.67;;
2912;SDS011;1466;48.778;9.166;2023-03-20T03:31:42;6.40;;;3.22;;
2912;SDS011;1466;48.778;9.166;2023-03-20T03:34:13;10.25;;;4.03;;
2912;SDS011;1466;48.778;9.166;2023-03-20T03:44:47;8.70;;;3.57;;
2912;SDS011;1466;48.778;9.166;2023-03-20T03:47:29;13.27;;;4.78;;
2912;SDS011;1466;48.778;9.166;2023-03-20T03:50:04;7.43;;;3.30;;
2912;SDS011;1466;48.778;9.166;2023-03-20T03:52:37;12.98;;;3.90;;
2912;SDS011;1466;48.778;9.166;2023-03-20T03:55:06;10.43;;;4.05;;
2912;SDS011;1466;48.778;9.166;2023-03-20T03:57:36;15.63;;;4.63;;
2912;SDS011;1466;48.778;9.166;2023-03-20T04:00:08;9.65;;;3.88;;
2912;SDS011;1466;48.778;9.166;2023-03-20T04:02:37;12.07;;;4.15;;
2912;SDS011;1466;48.778;9.166;2023-03-20T04:05:05;18.50;;;4.90;;
2912;SDS011;1466;48.778;9.166;2023-03-20T04:07:32;15.30;;;4.68;;
2912;SDS011;1466;48.778;9.166;2023-03-20T04:09:58;10.03;;;3.83;;
2912;SDS011;1466;48.778;9.166;2023-03-20T04:12:31;8.33;;;3.60;;
2912;SDS011;1466;48.778;9.166;2023-03-20T04:14:59;13.27;;;4.40;;
2912;SDS011;1466;48.778;9.166;2023-03-20T04:17:25;8.98;;;3.67;;
2912;SDS011;1466;48.778;9.166;2023-03-20T04:19:51;8.13;;;3.63;;
2912;SDS011;1466;48.778;9.166;2023-03-20T04:22:16;10.77;;;4.20;;
2912;SDS011;1466;48.778;9.166;2023-03-20T04:24:42;21.50;;;6.23;;
2912;SDS011;1466;48.778;9.166;2023-03-20T04:27:07;13.63;;;4.57;;
2912;SDS011;1466;48.778;9.166;2023-03-20T04:29:33;6.07;;;3.40;;
2912;SDS011;1466;48.778;9.166;2023-03-20T04:31:58;18.23;;;5.33;;
2912;SDS011;1466;48.778;9.166;2023-03-20T04:34:24;5.83;;;3.23;;
2912;SDS011;1466;48.778;9.166;2023-03-20T04:36:51;8.48;;;4.03;;
2912;SDS011;1466;48.778;9.166;2023-03-20T04:39:16;9.67;;;4.03;;
2912;SDS011;1466;48.778;9.166;2023-03-20T04:41:42;8.80;;;3.73;;
2912;SDS011;1466;48.778;9.166;2023-03-20T04:44:08;11.85;;;4.22;;
2912;SDS011;1466;48.778;9.166;2023-03-20T04:46:34;14.93;;;5.23;;
2912;SDS011;1466;48.778;9.166;2023-03-20T04:48:59;19.53;;;6.10;;
2912;SDS011;1466;48.778;9.166;2023-03-20T04:51:25;12.20;;;4.50;;
2912;SDS011;1466;48.778;9.166;2023-03-20T04:53:50;6.43;;;3.67;;
2912;SDS011;1466;48.778;9.166;2023-03-20T04:56:16;10.20;;;4.27;;
2912;SDS011;1466;48.778;9.166;2023-03-20T04:58:42;12.97;;;4.60;;
2912;SDS011;1466;48.778;9.166;2023-03-20T05:01:07;14.20;;;4.67;;
2912;SDS011;1466;48.778;9.166;2023-03-20T05:03:33;13.37;;;4.50;;
2912;SDS011;1466;48.778;9.166;2023-03-20T05:05:59;9.20;;;3.83;;
2912;SDS011;1466;48.778;9.166;2023-03-20T05:08:24;9.13;;;4.20;;
2912;SDS011;1466;48.778;9.166;2023-03-20T05:10:51;12.65;;;4.53;;
2912;SDS011;1466;48.778;9.166;2023-03-20T05:13:16;8.93;;;4.20;;
2912;SDS011;1466;48.778;9.166;2023-03-20T05:15:42;14.63;;;4.90;;
2912;SDS011;1466;48.778;9.166;2023-03-20T05:18:08;12.13;;;4.50;;
2912;SDS011;1466;48.778;9.166;2023-03-20T05:20:34;12.43;;;4.23;;
2912;SDS011;1466;48.778;9.166;2023-03-20T05:23:00;10.48;;;3.85;;
2912;SDS011;1466;48.778;9.166;2023-03-20T05:25:26;18.77;;;5.57;;
2912;SDS011;1466;48.778;9.166;2023-03-20T05:27:52;11.13;;;4.43;;
2912;SDS011;1466;48.778;9.166;2023-03-20T05:30:17;19.43;;;5.27;;
2912;SDS011;1466;48.778;9.166;2023-03-20T05:32:43;17.30;;;5.07;;
2912;SDS011;1466;48.778;9.166;2023-03-20T05:35:09;7.50;;;3.20;;
2912;SDS011;1466;48.778;9.166;2023-03-20T05:37:36;12.25;;;3.85;;
2912;SDS011;1466;48.778;9.166;2023-03-20T05:40:02;14.50;;;4.60;;
2912;SDS011;1466;48.778;9.166;2023-03-20T05:42:28;15.13;;;4.70;;
2912;SDS011;1466;48.778;9.166;2023-03-20T05:44:54;15.13;;;4.53;;
2912;SDS011;1466;48.778;9.166;2023-03-20T05:47:20;8.23;;;3.77;;
2912;SDS011;1466;48.778;9.166;2023-03-20T05:49:45;17.27;;;5.50;;
2912;SDS011;1466;48.778;9.166;2023-03-20T05:52:11;9.33;;;4.00;;
2912;SDS011;1466;48.778;9.166;2023-03-20T05:54:36;12.80;;;4.40;;
2912;SDS011;1466;48.778;9.166;2023-03-20T05:57:02;24.60;;;6.43;;
2912;SDS011;1466;48.778;9.166;2023-03-20T05:59:28;14.73;;;4.73;;
2912;SDS011;1466;48.778;9.166;2023-03-20T06:01:53;14.00;;;5.27;;
2912;SDS011;1466;48.778;9.166;2023-03-20T06:04:19;17.83;;;4.83;;
2912;SDS011;1466;48.778;9.166;2023-03-20T06:06:44;23.10;;;6.10;;
2912;SDS011;1466;48.778;9.166;2023-03-20T06:09:10;18.43;;;5.50;;
2912;SDS011;1466;48.778;9.166;2023-03-20T06:11:35;9.30;;;3.70;;
2912;SDS011;1466;48.778;9.166;2023-03-20T06:14:01;16.17;;;5.32;;
2912;SDS011;1466;48.778;9.166;2023-03-20T06:16:27;10.83;;;4.60;;
2912;SDS011;1466;48.778;9.166;2023-03-20T06:18:52;16.33;;;5.27;;
2912;SDS011;1466;48.778;9.166;2023-03-20T06:21:18;13.13;;;4.70;;
2912;SDS011;1466;48.778;9.166;2023-03-20T06:23:43;18.37;;;5.40;;
2912;SDS011;1466;48.778;9.166;2023-03-20T06:26:09;19.83;;;6.10;;
2912;SDS011;1466;48.778;9.166;2023-03-20T06:28:35;17.58;;;5.40;;
2912;SDS011;1466;48.778;9.166;2023-03-20T06:31:01;13.23;;;4.53;;
2912;SDS011;1466;48.778;9.166;2023-03-20T06:33:27;22.60;;;6.07;;
2912;SDS011;1466;48.778;9.166;2023-03-20T06:35:53;22.53;;;6.07;;
2912;SDS011;1466;48.778;9.166;2023-03-20T06:38:18;8.50;;;4.10;;
2912;SDS011;1466;48.778;9.166;2023-03-20T06:40:44;11.17;;;4.17;;
2912;SDS011;1466;48.778;9.166;2023-03-20T06:43:10;15.30;;;5.07;;
2912;SDS011;1466;48.778;9.166;2023-03-20T06:45:36;13.35;;;4.50;;
2912;SDS011;1466;48.778;9.166;2023-03-20T06:48:05;14.38;;;5.10;;
2912;SDS011;1466;48.778;9.166;2023-03-20T06:50:31;16.90;;;5.85;;
2912;SDS011;1466;48.778;9.166;2023-03-20T06:52:57;20.90;;;6.10;;
2912;SDS011;1466;48.778;9.166;2023-03-20T06:55:22;25.60;;;6.63;;
2912;SDS011;1466;48.778;9.166;2023-03-20T06:57:48;17.77;;;4.83;;
2912;SDS011;1466;48.778;9.166;2023-03-20T07:00:13;11.80;;;4.70;;
2912;SDS011;1466;48.778;9.166;2023-03-20T07:02:39;18.17;;;5.45;;
2912;SDS011;1466;48.778;9.166;2023-03-20T07:05:05;15.80;;;5.20;;
2912;SDS011;1466;48.778;9.166;2023-03-20T07:07:32;14.23;;;5.10;;
2912;SDS011;1466;48.778;9.166;2023-03-20T07:09:58;18.60;;;5.82;;
2912;SDS011;1466;48.778;9.166;2023-03-20T07:12:23;13.00;;;4.60;;
2912;SDS011;1466;48.778;9.166;2023-03-20T07:14:52;15.40;;;5.18;;
2912;SDS011;1466;48.778;9.166;2023-03-20T07:17:18;29.63;;;7.37;;
2912;SDS011;1466;48.778;9.166;2023-03-20T07:19:44;14.30;;;4.97;;
2912;SDS011;1466;48.778;9.166;2023-03-20T07:22:14;16.70;;;5.00;;
2912;SDS011;1466;48.778;9.166;2023-03-20T07:24:47;10.38;;;4.68;;
2912;SDS011;1466;48.778;9.166;2023-03-20T07:27:13;18.40;;;5.60;;
2912;SDS011;1466;48.778;9.166;2023-03-20T07:29:38;18.10;;;5.80;;
2912;SDS011;1466;48.778;9.166;2023-03-20T07:32:04;11.50;;;4.40;;
2912;SDS011;1466;48.778;9.166;2023-03-20T07:34:30;15.87;;;5.03;;
2912;SDS011;1466;48.778;9.166;2023-03-20T07:36:55;8.13;;;4.23;;
2912;SDS011;1466;48.778;9.166;2023-03-20T07:39:21;11.60;;;4.60;;
2912;SDS011;1466;48.778;9.166;2023-03-20T07:41:47;19.23;;;5.90;;
2912;SDS011;1466;48.778;9.166;2023-03-20T07:44:13;17.17;;;5.57;;
2912;SDS011;1466;48.778;9.166;2023-03-20T07:46:39;17.13;;;5.47;;
2912;SDS011;1466;48.778;9.166;2023-03-20T07:49:05;39.22;;;11.32;;
2912;SDS011;1466;48.778;9.166;2023-03-20T07:51:31;15.02;;;5.32;;
2912;SDS011;1466;48.778;9.166;2023-03-20T07:53:57;22.95;;;6.15;;
2912;SDS011;1466;48.778;9.166;2023-03-20T07:56:22;17.53;;;5.70;;
2912;SDS011;1466;48.778;9.166;2023-03-20T07:58:48;13.30;;;5.27;;
2912;SDS011;1466;48.778;9.166;2023-03-20T08:01:13;11.47;;;4.63;;
2912;SDS011;1466;48.778;9.166;2023-03-20T08:03:39;14.60;;;5.17;;
2912;SDS011;1466;48.778;9.166;2023-03-20T08:06:05;7.97;;;4.37;;
2912;SDS011;1466;48.778;9.166;2023-03-20T08:08:33;13.07;;;4.80;;
2912;SDS011;1466;48.778;9.166;2023-03-20T08:10:59;13.73;;;5.00;;
2912;SDS011;1466;48.778;9.166;2023-03-20T08:13:25;14.05;;;5.35;;
2912;SDS011;1466;48.778;9.166;2023-03-20T08:15:51;12.83;;;5.03;;
2912;SDS011;1466;48.778;9.166;2023-03-20T08:18:17;14.60;;;5.10;;
2912;SDS011;1466;48.778;9.166;2023-03-20T08:20:44;14.15;;;5.28;;
2912;SDS011;1466;48.778;9.166;2023-03-20T08:23:10;14.32;;;5.30;;
2912;SDS011;1466;48.778;9.166;2023-03-20T08:25:36;13.63;;;5.07;;
2912;SDS011;1466;48.778;9.166;2023-03-20T08:28:02;17.13;;;5.17;;
2912;SDS011;1466;48.778;9.166;2023-03-20T08:30:28;19.70;;;6.25;;
2912;SDS011;1466;48.778;9.166;2023-03-20T08:32:54;15.75;;;5.30;;
2912;SDS011;1466;48.778;9.166;2023-03-20T08:35:22;21.35;;;6.22;;
2912;SDS011;1466;48.778;9.166;2023-03-20T08:37:47;13.20;;;4.90;;
2912;SDS011;1466;48.778;9.166;2023-03-20T08:40:13;12.50;;;4.53;;
2912;SDS011;1466;48.778;9.166;2023-03-20T08:42:39;14.13;;;5.30;;
2912;SDS011;1466;48.778;9.166;2023-03-20T08:45:05;14.53;;;5.13;;
2912;SDS011;1466;48.778;9.166;2023-03-20T08:47:31;14.45;;;5.30;;
2912;SDS011;1466;48.778;9.166;2023-03-20T08:49:57;11.70;;;4.40;;
2912;SDS011;1466;48.778;9.166;2023-03-20T08:52:22;18.23;;;5.57;;
2912;SDS011;1466;48.778;9.166;2023-03-20T08:54:48;9.67;;;4.50;;
2912;SDS011;1466;48.778;9.166;2023-03-20T08:57:13;14.10;;;5.23;;
2912;SDS011;1466;48.778;9.166;2023-03-20T08:59:39;13.43;;;4.67;;
2912;SDS011;1466;48.778;9.166;2023-03-20T09:02:05;14.70;;;5.30;;
2912;SDS011;1466;48.778;9.166;2023-03-20T09:04:31;12.03;;;4.70;;
2912;SDS011;1466;48.778;9.166;2023-03-20T09:06:57;9.80;;;4.37;;
2912;SDS011;1466;48.778;9.166;2023-03-20T09:09:25;12.95;;;4.95;;
2912;SDS011;1466;48.778;9.166;2023-03-20T09:11:53;14.75;;;5.05;;
2912;SDS011;1466;48.778;9.166;2023-03-20T09:14:21;12.35;;;4.97;;
2912;SDS011;1466;48.778;9.166;2023-03-20T09:16:47;15.85;;;5.55;;
2912;SDS011;1466;48.778;9.166;2023-03-20T09:19:13;19.17;;;6.13;;
2912;SDS011;1466;48.778;9.166;2023-03-20T09:21:38;9.77;;;4.10;;
2912;SDS011;1466;48.778;9.166;2023-03-20T09:24:04;11.70;;;4.97;;
2912;SDS011;1466;48.778;9.166;2023-03-20T09:26:30;10.38;;;4.65;;
2912;SDS011;1466;48.778;9.166;2023-03-20T09:28:56;13.67;;;4.83;;
2912;SDS011;1466;48.778;9.166;2023-03-20T09:31:21;18.23;;;6.03;;
2912;SDS011;1466;48.778;9.166;2023-03-20T09:33:48;15.52;;;5.10;;
2912;SDS011;1466;48.778;9.166;2023-03-20T09:36:13;16.73;;;5.57;;
2912;SDS011;1466;48.778;9.166;2023-03-20T09:38:40;9.25;;;4.15;;
2912;SDS011;1466;48.778;9.166;2023-03-20T09:41:06;12.40;;;4.60;;
2912;SDS011;1466;48.778;9.166;2023-03-20T09:51:55;14.40;;;5.05;;
2912;SDS011;1466;48.778;9.166;2023-03-20T09:56:49;12.47;;;5.03;;
2912;SDS011;1466;48.778;9.166;2023-03-20T09:59:15;18.88;;;6.05;;
2912;SDS011;1466;48.778;9.166;2023-03-20T10:01:46;15.68;;;5.45;;
2912;SDS011;1466;48.778;9.166;2023-03-20T10:04:13;12.90;;;5.38;;
2912;SDS011;1466;48.778;9.166;2023-03-20T10:06:38;17.03;;;5.57;;
2912;SDS011;1466;48.778;9.166;2023-03-20T10:09:11;15.97;;;5.77;;
2912;SDS011;1466;48.778;9.166;2023-03-20T10:19:51;9.25;;;4.40;;
2912;SDS011;1466;48.778;9.166;2023-03-20T10:22:44;14.38;;;5.28;;
2912;SDS011;1466;48.778;9.166;2023-03-20T10:25:19;13.75;;;5.57;;
2912;SDS011;1466;48.778;9.166;2023-03-20T10:28:00;32.25;;;8.35;;
2912;SDS011;1466;48.778;9.166;2023-03-20T10:33:22;16.33;;;5.63;;
2912;SDS011;1466;48.778;9.166;2023-03-20T10:39:02;7.40;;;3.90;;
2912;SDS011;1466;48.778;9.166;2023-03-20T10:41:37;11.43;;;4.30;;
2912;SDS011;1466;48.778;9.166;2023-03-20T10:44:05;12.82;;;4.88;;
2912;SDS011;1466;48.778;9.166;2023-03-20T10:46:46;9.50;;;4.50;;
2912;SDS011;1466;48.778;9.166;2023-03-20T10:49:34;17.80;;;5.75;;
2912;SDS011;1466;48.778;9.166;2023-03-20T10:52:02;11.50;;;4.82;;
2912;SDS011;1466;48.778;9.166;2023-03-20T10:54:37;17.98;;;5.97;;
2912;SDS011;1466;48.778;9.166;2023-03-20T10:57:19;14.88;;;5.57;;
2912;SDS011;1466;48.778;9.166;2023-03-20T10:59:51;16.65;;;5.97;;
2912;SDS011;1466;48.778;9.166;2023-03-20T11:02:20;10.80;;;4.97;;
2912;SDS011;1466;48.778;9.166;2023-03-20T11:04:47;27.13;;;7.57;;
2912;SDS011;1466;48.778;9.166;2023-03-20T11:12:37;25.30;;;7.25;;
2912;SDS011;1466;48.778;9.166;2023-03-20T11:15:22;16.15;;;6.18;;
2912;SDS011;1466;48.778;9.166;2023-03-20T11:17:57;16.95;;;6.20;;
2912;SDS011;1466;48.778;9.166;2023-03-20T11:20:25;28.40;;;8.13;;
2912;SDS011;1466;48.778;9.166;2023-03-20T11:22:57;15.63;;;6.90;;
2912;SDS011;1466;48.778;9.166;2023-03-20T11:25:36;15.95;;;7.55;;
2912;SDS011;1466;48.778;9.166;2023-03-20T11:28:20;17.92;;;7.43;;
2912;SDS011;1466;48.778;9.166;2023-03-20T11:31:14;17.50;;;7.93;;
2912;SDS011;1466;48.778;9.166;2023-03-20T11:33:43;19.17;;;8.20;;
2912;SDS011;1466;48.778;9.166;2023-03-20T11:38:47;15.25;;;7.15;;
2912;SDS011;1466;48.778;9.166;2023-03-20T11:41:18;16.98;;;7.78;;
2912;SDS011;1466;48.778;9.166;2023-03-20T11:43:49;16.77;;;6.75;;
2912;SDS011;1466;48.778;9.166;2023-03-20T11:46:14;17.80;;;7.80;;
2912;SDS011;1466;48.778;9.166;2023-03-20T11:48:41;20.73;;;8.53;;
2912;SDS011;1466;48.778;9.166;2023-03-20T11:51:19;20.67;;;7.63;;
2912;SDS011;1466;48.778;9.166;2023-03-20T12:01:20;22.00;;;8.27;;
2912;SDS011;1466;48.778;9.166;2023-03-20T12:03:59;14.15;;;7.18;;
2912;SDS011;1466;48.778;9.166;2023-03-20T12:06:39;26.85;;;9.85;;
2912;SDS011;1466;48.778;9.166;2023-03-20T12:14:36;21.25;;;8.43;;
2912;SDS011;1466;48.778;9.166;2023-03-20T12:20:10;14.43;;;7.15;;
2912;SDS011;1466;48.778;9.166;2023-03-20T12:23:19;20.85;;;7.30;;
2912;SDS011;1466;48.778;9.166;2023-03-20T12:26:31;20.63;;;7.45;;
2912;SDS011;1466;48.778;9.166;2023-03-20T12:29:11;20.70;;;7.25;;
2912;SDS011;1466;48.778;9.166;2023-03-20T12:33:00;15.15;;;6.88;;
2912;SDS011;1466;48.778;9.166;2023-03-20T12:35:14;18.58;;;7.95;;
2912;SDS011;1466;48.778;9.166;2023-03-20T12:37:45;19.67;;;8.05;;
2912;SDS011;1466;48.778;9.166;2023-03-20T12:40:14;17.47;;;6.97;;
2912;SDS011;1466;48.778;9.166;2023-03-20T12:45:38;12.25;;;5.95;;
2912;SDS011;1466;48.778;9.166;2023-03-20T12:50:58;18.80;;;7.32;;
2912;SDS011;1466;48.778;9.166;2023-03-20T13:06:58;22.65;;;7.90;;
2912;SDS011;1466;48.778;9.166;2023-03-20T13:09:43;19.58;;;7.97;;
2912;SDS011;1466;48.778;9.166;2023-03-20T13:20:30;20.48;;;8.52;;
2912;SDS011;1466;48.778;9.166;2023-03-20T13:23:29;17.90;;;7.55;;
2912;SDS011;1466;48.778;9.166;2023-03-20T13:31:12;17.63;;;7.38;;
2912;SDS011;1466;48.778;9.166;2023-03-20T13:39:30;16.45;;;6.65;;
2912;SDS011;1466;48.778;9.166;2023-03-20T13:42:16;12.10;;;6.22;;
2912;SDS011;1466;48.778;9.166;2023-03-20T13:44:45;25.50;;;9.48;;
2912;SDS011;1466;48.778;9.166;2023-03-20T13:47:17;18.13;;;7.40;;
2912;SDS011;1466;48.778;9.166;2023-03-20T13:52:41;16.45;;;6.85;;
2912;SDS011;1466;48.778;9.166;2023-03-20T13:58:12;23.35;;;7.72;;
2912;SDS011;1466;48.778;9.166;2023-03-20T14:03:32;14.93;;;6.57;;
2912;SDS011;1466;48.778;9.166;2023-03-20T14:06:00;18.70;;;7.00;;
2912;SDS011;1466;48.778;9.166;2023-03-20T14:09:00;19.10;;;7.25;;
2912;SDS011;1466;48.778;9.166;2023-03-20T14:11:29;17.30;;;6.63;;
2912;SDS011;1466;48.778;9.166;2023-03-20T14:14:22;19.75;;;6.90;;
2912;SDS011;1466;48.778;9.166;2023-03-20T14:17:06;18.05;;;7.22;;
2912;SDS011;1466;48.778;9.166;2023-03-20T14:19:32;14.80;;;6.85;;
2912;SDS011;1466;48.778;9.166;2023-03-20T14:22:00;20.60;;;7.35;;
2912;SDS011;1466;48.778;9.166;2023-03-20T14:24:26;20.00;;;7.30;;
2912;SDS011;1466;48.778;9.166;2023-03-20T14:26:56;20.85;;;7.35;;
2912;SDS011;1466;48.778;9.166;2023-03-20T14:34:43;14.10;;;5.80;;
2912;SDS011;1466;48.778;9.166;2023-03-20T14:42:54;15.50;;;6.38;;
2912;SDS011;1466;48.778;9.166;2023-03-20T14:50:49;13.82;;;6.07;;
2912;SDS011;1466;48.778;9.166;2023-03-20T14:53:36;18.60;;;6.90;;
2912;SDS011;1466;48.778;9.166;2023-03-20T15:01:06;12.73;;;5.00;;
2912;SDS011;1466;48.778;9.166;2023-03-20T15:03:49;16.65;;;5.50;;
2912;SDS011;1466;48.778;9.166;2023-03-20T15:06:20;17.10;;;6.40;;
2912;SDS011;1466;48.778;9.166;2023-03-20T15:08:56;18.27;;;6.55;;
2912;SDS011;1466;48.778;9.166;2023-03-20T15:11:33;28.13;;;8.38;;
2912;SDS011;1466;48.778;9.166;2023-03-20T15:14:00;13.80;;;5.87;;
2912;SDS011;1466;48.778;9.166;2023-03-20T15:16:30;18.75;;;6.53;;
2912;SDS011;1466;48.778;9.166;2023-03-20T15:18:58;16.10;;;6.03;;
2912;SDS011;1466;48.778;9.166;2023-03-20T15:21:37;15.03;;;6.10;;
2912;SDS011;1466;48.778;9.166;2023-03-20T15:24:05;19.35;;;6.53;;
2912;SDS011;1466;48.778;9.166;2023-03-20T15:26:32;11.00;;;5.10;;
2912;SDS011;1466;48.778;9.166;2023-03-20T15:28:59;13.32;;;5.82;;
2912;SDS011;1466;48.778;9.166;2023-03-20T15:31:31;15.73;;;6.63;;
2912;SDS011;1466;48.778;9.166;2023-03-20T15:33:59;18.90;;;6.68;;
2912;SDS011;1466;48.778;9.166;2023-03-20T15:36:29;12.57;;;5.63;;
2912;SDS011;1466;48.778;9.166;2023-03-20T15:39:02;18.70;;;7.20;;
2912;SDS011;1466;48.778;9.166;2023-03-20T15:41:37;20.73;;;7.05;;
2912;SDS011;1466;48.778;9.166;2023-03-20T15:49:18;19.08;;;7.28;;
2912;SDS011;1466;48.778;9.166;2023-03-20T15:51:44;13.95;;;6.00;;
2912;SDS011;1466;48.778;9.166;2023-03-20T15:54:14;11.55;;;5.15;;
2912;SDS011;1466;48.778;9.166;2023-03-20T15:56:45;18.10;;;5.53;;
2912;SDS011;1466;48.778;9.166;2023-03-20T15:59:15;9.98;;;4.72;;
2912;SDS011;1466;48.778;9.166;2023-03-20T16:01:43;12.23;;;5.03;;
2912;SDS011;1466;48.778;9.166;2023-03-20T16:04:14;12.70;;;4.90;;
2912;SDS011;1466;48.778;9.166;2023-03-20T16:06:48;11.85;;;4.65;;
2912;SDS011;1466;48.778;9.166;2023-03-20T16:09:17;20.00;;;5.38;;
2912;SDS011;1466;48.778;9.166;2023-03-20T16:11:44;12.10;;;4.83;;
2912;SDS011;1466;48.778;9.166;2023-03-20T16:14:19;17.40;;;5.90;;
2912;SDS011;1466;48.778;9.166;2023-03-20T16:16:48;19.55;;;5.97;;
2912;SDS011;1466;48.778;9.166;2023-03-20T16:19:15;16.70;;;5.97;;
2912;SDS011;1466;48.778;9.166;2023-03-20T16:21:43;16.10;;;5.53;;
2912;SDS011;1466;48.778;9.166;2023-03-20T16:24:17;8.45;;;4.15;;
2912;SDS011;1466;48.778;9.166;2023-03-20T16:26:47;11.35;;;4.72;;
2912;SDS011;1466;48.778;9.166;2023-03-20T16:29:16;18.40;;;6.15;;
2912;SDS011;1466;48.778;9.166;2023-03-20T16:32:01;12.95;;;5.38;;
2912;SDS011;1466;48.778;9.166;2023-03-20T16:34:32;8.35;;;4.25;;
2912;SDS011;1466;48.778;9.166;2023-03-20T16:37:00;14.80;;;5.35;;
2912;SDS011;1466;48.778;9.166;2023-03-20T16:39:45;13.48;;;5.15;;
2912;SDS011;1466;48.778;9.166;2023-03-20T16:42:19;17.07;;;6.03;;
2912;SDS011;1466;48.778;9.166;2023-03-20T16:44:51;13.80;;;5.30;;
2912;SDS011;1466;48.778;9.166;2023-03-20T16:47:34;13.88;;;5.30;;
2912;SDS011;1466;48.778;9.166;2023-03-20T16:50:09;9.73;;;4.75;;
2912;SDS011;1466;48.778;9.166;2023-03-20T16:52:44;14.85;;;5.28;;
2912;SDS011;1466;48.778;9.166;2023-03-20T16:55:14;13.30;;;5.00;;
2912;SDS011;1466;48.778;9.166;2023-03-20T16:57:43;11.90;;;5.10;;
2912;SDS011;1466;48.778;9.166;2023-03-20T17:00:22;18.23;;;6.07;;
2912;SDS011;1466;48.778;9.166;2023-03-20T17:02:57;12.02;;;4.85;;
2912;SDS011;1466;48.778;9.166;2023-03-20T17:08:27;14.38;;;5.38;;
2912;SDS011;1466;48.778;9.166;2023-03-20T17:11:12;23.38;;;6.75;;
2912;SDS011;1466;48.778;9.166;2023-03-20T17:13:41;13.30;;;5.45;;
2912;SDS011;1466;48.778;9.166;2023-03-20T17:16:12;13.88;;;5.47;;
2912;SDS011;1466;48.778;9.166;2023-03-20T17:18:43;18.25;;;6.22;;
2912;SDS011;1466;48.778;9.166;2023-03-20T17:21:22;21.10;;;6.53;;
2912;SDS011;1466;48.778;9.166;2023-03-20T17:23:48;18.90;;;6.10;;
2912;SDS011;1466;48.778;9.166;2023-03-20T17:26:13;15.97;;;5.93;;
2912;SDS011;1466;48.778;9.166;2023-03-20T17:28:39;10.03;;;4.53;;
2912;SDS011;1466;48.778;9.166;2023-03-20T17:31:07;10.98;;;4.72;;
2912;SDS011;1466;48.778;9.166;2023-03-20T17:33:36;9.13;;;4.60;;
2912;SDS011;1466;48.778;9.166;2023-03-20T17:36:02;21.00;;;6.33;;
2912;SDS011;1466;48.778;9.166;2023-03-20T17:38:28;16.77;;;5.80;;
2912;SDS011;1466;48.778;9.166;2023-03-20T17:40:53;17.77;;;6.43;;
2912;SDS011;1466;48.778;9.166;2023-03-20T17:43:19;18.97;;;6.40;;
2912;SDS011;1466;48.778;9.166;2023-03-20T17:45:47;12.65;;;5.50;;
2912;SDS011;1466;48.778;9.166;2023-03-20T17:48:14;17.37;;;6.20;;
2912;SDS011;1466;48.778;9.166;2023-03-20T17:50:45;17.27;;;5.90;;
2912;SDS011;1466;48.778;9.166;2023-03-20T17:53:19;23.85;;;7.07;;
2912;SDS011;1466;48.778;9.166;2023-03-20T17:55:48;17.20;;;5.78;;
2912;SDS011;1466;48.778;9.166;2023-03-20T17:58:17;11.23;;;4.97;;
2912;SDS011;1466;48.778;9.166;2023-03-20T18:00:46;12.48;;;5.72;;
2912;SDS011;1466;48.778;9.166;2023-03-20T18:03:13;37.30;;;10.18;;